createdAt,value
2018-01-24T06:54:59.148Z,86.4
2018-01-24T07:11:38.664Z,85.6
2018-01-24T07:28:20.970Z,85.6
2018-01-24T07:44:59.943Z,85.2
2018-01-24T08:01:40.278Z,84.4
2018-01-24T08:18:21.211Z,84.4
2018-01-24T08:35:02.025Z,84.0
2018-01-24T08:51:43.695Z,84.0
2018-01-24T09:08:24.524Z,83.6
2018-01-24T09:25:06.322Z,82.8
2018-01-24T09:41:46.974Z,82.0
2018-01-24T09:58:29.782Z,82.0
2018-01-24T10:31:53.400Z,81.2
2018-01-24T10:48:33.996Z,81.2
2018-01-24T11:05:16.240Z,80.4
2018-01-24T11:21:59.538Z,79.6
2018-01-24T11:38:41.629Z,78.8
2018-01-24T11:55:24.376Z,78.4
2018-01-24T12:12:07.228Z,77.6
2018-01-24T12:28:49.963Z,77.6
2018-01-24T12:45:32.717Z,77.6
2018-01-24T13:02:15.306Z,77.6
2018-01-24T13:18:57.937Z,77.2
2018-01-24T13:35:40.344Z,77.2
2018-01-24T13:52:22.880Z,76.8
2018-01-24T14:09:05.296Z,76.8
2018-01-24T14:25:47.902Z,76.8
2018-01-24T14:42:30.295Z,76.8
2018-01-24T14:59:12.819Z,76.4
2018-01-24T15:15:55.192Z,76.4
2018-01-24T15:32:37.466Z,76.0
2018-01-24T15:49:19.815Z,76.0
2018-01-24T16:06:02.089Z,76.0
2018-01-24T16:22:44.135Z,75.6
2018-01-24T16:39:26.328Z,74.8
2018-01-24T16:56:08.378Z,73.6
2018-01-24T17:12:50.633Z,73.6
2018-01-24T17:46:14.801Z,72.8
2018-01-24T18:02:56.805Z,72.0
2018-01-24T18:19:38.856Z,71.6
2018-01-24T18:36:20.993Z,70.8
2018-01-24T18:53:02.907Z,70.4
2018-01-24T19:09:44.918Z,70.8
2018-01-24T19:26:26.961Z,70.4
2018-01-24T19:43:08.706Z,70.4
2018-01-24T19:59:50.464Z,70.0
2018-01-24T20:16:31.835Z,70.0
2018-01-24T20:33:13.057Z,70.0
2018-01-24T20:49:54.086Z,70.0
2018-01-24T21:06:35.302Z,69.6
2018-01-24T21:23:16.453Z,70.0
2018-01-24T21:39:57.634Z,70.0
2018-01-24T21:56:38.721Z,70.0
2018-01-24T22:13:19.827Z,70.0
2018-01-24T22:30:00.864Z,70.8
2018-01-24T22:46:41.962Z,71.2
2018-01-24T23:03:23.722Z,71.6
2018-01-24T23:20:04.296Z,72.0
2018-01-24T23:36:45.506Z,72.4
2018-01-24T23:53:33.254Z,72.8
